sensor_id;sensor_type;location;lat;lon;timestamp;P1;durP1;ratioP1;P2;durP2;ratioP2
34737;SDS011;39910;47.154;27.614;2023-09-30T00:02:20;11.35;;;10.85;;
34737;SDS011;39910;47.154;27.614;2023-09-30T00:04:45;11.32;;;10.82;;
34737;SDS011;39910;47.154;27.614;2023-09-30T00:07:10;11.43;;;10.93;;
34737;SDS011;39910;47.154;27.614;2023-09-30T00:09:36;10.80;;;10.30;;
34737;SDS011;39910;47.154;27.614;2023-09-30T00:12:02;11.18;;;10.68;;
34737;SDS011;39910;47.154;27.614;2023-09-30T00:14:27;11.20;;;10.70;;
34737;SDS011;39910;47.154;27.614;2023-09-30T00:16:54;11.10;;;10.60;;
34737;SDS011;39910;47.154;27.614;2023-09-30T00:19:19;11.18;;;10.68;;
34737;SDS011;39910;47.154;27.614;2023-09-30T00:21:44;11.20;;;10.70;;
34737;SDS011;39910;47.154;27.614;2023-09-30T00:24:10;10.95;;;10.45;;
34737;SDS011;39910;47.154;27.614;2023-09-30T00:26:35;11.10;;;10.60;;
34737;SDS011;39910;47.154;27.614;2023-09-30T00:29:01;10.68;;;10.18;;
34737;SDS011;39910;47.154;27.614;2023-09-30T00:31:29;11.05;;;10.55;;
34737;SDS011;39910;47.154;27.614;2023-09-30T00:33:55;11.32;;;10.82;;
34737;SDS011;39910;47.154;27.614;2023-09-30T00:36:21;11.15;;;10.65;;
34737;SDS011;39910;47.154;27.614;2023-09-30T00:38:46;11.25;;;10.75;;
34737;SDS011;39910;47.154;27.614;2023-09-30T00:41:12;11.23;;;10.73;;
34737;SDS011;39910;47.154;27.614;2023-09-30T00:43:37;10.88;;;10.38;;
34737;SDS011;39910;47.154;27.614;2023-09-30T00:46:04;11.00;;;10.50;;
34737;SDS011;39910;47.154;27.614;2023-09-30T00:48:34;10.93;;;10.43;;
34737;SDS011;39910;47.154;27.614;2023-09-30T00:51:00;10.95;;;10.45;;
34737;SDS011;39910;47.154;27.614;2023-09-30T00:53:25;10.60;;;10.10;;
34737;SDS011;39910;47.154;27.614;2023-09-30T00:55:51;10.95;;;10.45;;
34737;SDS011;39910;47.154;27.614;2023-09-30T00:58:17;11.23;;;10.73;;
34737;SDS011;39910;47.154;27.614;2023-09-30T01:00:42;11.05;;;10.55;;
34737;SDS011;39910;47.154;27.614;2023-09-30T01:03:08;11.55;;;11.02;;
34737;SDS011;39910;47.154;27.614;2023-09-30T01:05:34;10.82;;;10.32;;
34737;SDS011;39910;47.154;27.614;2023-09-30T01:08:01;11.05;;;10.55;;
34737;SDS011;39910;47.154;27.614;2023-09-30T01:10:27;11.35;;;10.85;;
34737;SDS011;39910;47.154;27.614;2023-09-30T01:12:53;11.43;;;10.93;;
34737;SDS011;39910;47.154;27.614;2023-09-30T01:15:18;11.70;;;11.15;;
34737;SDS011;39910;47.154;27.614;2023-09-30T01:17:44;11.05;;;10.55;;
34737;SDS011;39910;47.154;27.614;2023-09-30T01:20:12;10.48;;;9.98;;
34737;SDS011;39910;47.154;27.614;2023-09-30T01:22:44;10.65;;;10.15;;
34737;SDS011;39910;47.154;27.614;2023-09-30T01:25:10;10.60;;;10.10;;
34737;SDS011;39910;47.154;27.614;2023-09-30T01:27:36;10.40;;;9.90;;
34737;SDS011;39910;47.154;27.614;2023-09-30T01:30:02;11.20;;;10.70;;
34737;SDS011;39910;47.154;27.614;2023-09-30T01:32:27;10.95;;;10.45;;
34737;SDS011;39910;47.154;27.614;2023-09-30T01:34:53;10.88;;;10.38;;
34737;SDS011;39910;47.154;27.614;2023-09-30T01:37:18;11.20;;;10.70;;
34737;SDS011;39910;47.154;27.614;2023-09-30T01:39:44;11.10;;;10.60;;
34737;SDS011;39910;47.154;27.614;2023-09-30T01:42:10;10.70;;;10.20;;
34737;SDS011;39910;47.154;27.614;2023-09-30T01:44:35;11.40;;;10.90;;
34737;SDS011;39910;47.154;27.614;2023-09-30T01:47:01;10.68;;;10.18;;
34737;SDS011;39910;47.154;27.614;2023-09-30T01:49:26;10.52;;;10.02;;
34737;SDS011;39910;47.154;27.614;2023-09-30T01:51:51;11.05;;;10.55;;
34737;SDS011;39910;47.154;27.614;2023-09-30T01:54:17;10.90;;;10.40;;
34737;SDS011;39910;47.154;27.614;2023-09-30T01:56:42;10.60;;;10.10;;
34737;SDS011;39910;47.154;27.614;2023-09-30T01:59:08;10.55;;;10.05;;
34737;SDS011;39910;47.154;27.614;2023-09-30T02:01:33;10.95;;;10.45;;
34737;SDS011;39910;47.154;27.614;2023-09-30T02:03:58;10.57;;;10.07;;
34737;SDS011;39910;47.154;27.614;2023-09-30T02:06:24;10.95;;;10.45;;
34737;SDS011;39910;47.154;27.614;2023-09-30T02:08:49;10.93;;;10.43;;
34737;SDS011;39910;47.154;27.614;2023-09-30T02:11:14;11.35;;;10.85;;
34737;SDS011;39910;47.154;27.614;2023-09-30T02:13:40;11.02;;;10.52;;
34737;SDS011;39910;47.154;27.614;2023-09-30T02:16:10;11.82;;;11.23;;
34737;SDS011;39910;47.154;27.614;2023-09-30T02:18:36;11.10;;;10.60;;
34737;SDS011;39910;47.154;27.614;2023-09-30T02:21:01;10.68;;;10.18;;
34737;SDS011;39910;47.154;27.614;2023-09-30T02:23:27;11.13;;;10.63;;
34737;SDS011;39910;47.154;27.614;2023-09-30T02:25:52;10.98;;;10.48;;
34737;SDS011;39910;47.154;27.614;2023-09-30T02:28:17;11.23;;;10.73;;
34737;SDS011;39910;47.154;27.614;2023-09-30T02:30:42;11.27;;;10.77;;
34737;SDS011;39910;47.154;27.614;2023-09-30T02:33:08;10.80;;;10.30;;
34737;SDS011;39910;47.154;27.614;2023-09-30T02:35:33;10.60;;;10.10;;
34737;SDS011;39910;47.154;27.614;2023-09-30T02:37:58;11.20;;;10.70;;
34737;SDS011;39910;47.154;27.614;2023-09-30T02:40:24;10.98;;;10.48;;
34737;SDS011;39910;47.154;27.614;2023-09-30T02:42:50;10.63;;;10.13;;
34737;SDS011;39910;47.154;27.614;2023-09-30T02:45:16;10.82;;;10.32;;
34737;SDS011;39910;47.154;27.614;2023-09-30T02:47:45;11.40;;;10.90;;
34737;SDS011;39910;47.154;27.614;2023-09-30T02:50:12;10.75;;;10.25;;
34737;SDS011;39910;47.154;27.614;2023-09-30T02:52:37;10.57;;;10.07;;
34737;SDS011;39910;47.154;27.614;2023-09-30T02:55:06;11.20;;;10.70;;
34737;SDS011;39910;47.154;27.614;2023-09-30T02:57:32;10.90;;;10.40;;
34737;SDS011;39910;47.154;27.614;2023-09-30T02:59:58;11.45;;;10.90;;
34737;SDS011;39910;47.154;27.614;2023-09-30T03:02:25;11.27;;;10.77;;
34737;SDS011;39910;47.154;27.614;2023-09-30T03:04:51;10.95;;;10.45;;
34737;SDS011;39910;47.154;27.614;2023-09-30T03:07:18;11.50;;;10.95;;
34737;SDS011;39910;47.154;27.614;2023-09-30T03:09:44;11.57;;;10.98;;
34737;SDS011;39910;47.154;27.614;2023-09-30T03:12:09;10.85;;;10.35;;
34737;SDS011;39910;47.154;27.614;2023-09-30T03:14:35;11.25;;;10.75;;
34737;SDS011;39910;47.154;27.614;2023-09-30T03:17:00;10.38;;;9.88;;
34737;SDS011;39910;47.154;27.614;2023-09-30T03:19:26;10.60;;;10.10;;
34737;SDS011;39910;47.154;27.614;2023-09-30T03:21:51;10.70;;;10.20;;
34737;SDS011;39910;47.154;27.614;2023-09-30T03:24:17;10.88;;;10.38;;
34737;SDS011;39910;47.154;27.614;2023-09-30T03:26:43;10.75;;;10.25;;
34737;SDS011;39910;47.154;27.614;2023-09-30T03:29:09;11.15;;;10.65;;
34737;SDS011;39910;47.154;27.614;2023-09-30T03:31:35;11.38;;;10.85;;
34737;SDS011;39910;47.154;27.614;2023-09-30T03:34:00;11.20;;;10.70;;
34737;SDS011;39910;47.154;27.614;2023-09-30T03:36:25;11.15;;;10.65;;
34737;SDS011;39910;47.154;27.614;2023-09-30T03:38:51;11.18;;;10.68;;
34737;SDS011;39910;47.154;27.614;2023-09-30T03:41:19;11.20;;;10.70;;
34737;SDS011;39910;47.154;27.614;2023-09-30T03:43:45;11.63;;;11.02;;
34737;SDS011;39910;47.154;27.614;2023-09-30T03:46:10;11.68;;;11.07;;
34737;SDS011;39910;47.154;27.614;2023-09-30T03:48:37;10.80;;;10.30;;
34737;SDS011;39910;47.154;27.614;2023-09-30T03:51:13;10.82;;;10.32;;
34737;SDS011;39910;47.154;27.614;2023-09-30T03:53:42;11.43;;;10.90;;
34737;SDS011;39910;47.154;27.614;2023-09-30T03:56:07;11.30;;;10.80;;
34737;SDS011;39910;47.154;27.614;2023-09-30T03:58:33;11.50;;;10.95;;
34737;SDS011;39910;47.154;27.614;2023-09-30T04:00:59;11.02;;;10.52;;
34737;SDS011;39910;47.154;27.614;2023-09-30T04:03:26;10.60;;;10.10;;
34737;SDS011;39910;47.154;27.614;2023-09-30T04:05:52;11.25;;;10.75;;
34737;SDS011;39910;47.154;27.614;2023-09-30T04:08:18;10.60;;;10.10;;
34737;SDS011;39910;47.154;27.614;2023-09-30T04:10:43;11.02;;;10.52;;
34737;SDS011;39910;47.154;27.614;2023-09-30T04:13:09;11.27;;;10.77;;
34737;SDS011;39910;47.154;27.614;2023-09-30T04:15:37;10.45;;;9.95;;
34737;SDS011;39910;47.154;27.614;2023-09-30T04:18:03;11.45;;;10.88;;
34737;SDS011;39910;47.154;27.614;2023-09-30T04:20:30;10.75;;;10.25;;
34737;SDS011;39910;47.154;27.614;2023-09-30T04:22:55;10.43;;;9.93;;
34737;SDS011;39910;47.154;27.614;2023-09-30T04:25:22;10.43;;;9.93;;
34737;SDS011;39910;47.154;27.614;2023-09-30T04:27:49;11.68;;;11.07;;
34737;SDS011;39910;47.154;27.614;2023-09-30T04:30:15;10.75;;;10.25;;
34737;SDS011;39910;47.154;27.614;2023-09-30T04:32:40;10.18;;;9.73;;
34737;SDS011;39910;47.154;27.614;2023-09-30T04:35:06;9.98;;;9.57;;
34737;SDS011;39910;47.154;27.614;2023-09-30T04:37:33;10.70;;;10.20;;
34737;SDS011;39910;47.154;27.614;2023-09-30T04:39:58;10.82;;;10.32;;
34737;SDS011;39910;47.154;27.614;2023-09-30T04:42:25;10.57;;;10.07;;
34737;SDS011;39910;47.154;27.614;2023-09-30T04:44:51;11.23;;;10.73;;
34737;SDS011;39910;47.154;27.614;2023-09-30T04:47:16;11.18;;;10.68;;
34737;SDS011;39910;47.154;27.614;2023-09-30T04:49:43;10.57;;;10.07;;
34737;SDS011;39910;47.154;27.614;2023-09-30T04:52:09;10.75;;;10.25;;
34737;SDS011;39910;47.154;27.614;2023-09-30T04:54:34;10.80;;;10.30;;
34737;SDS011;39910;47.154;27.614;2023-09-30T04:57:00;10.90;;;10.40;;
34737;SDS011;39910;47.154;27.614;2023-09-30T04:59:26;10.70;;;10.20;;
34737;SDS011;39910;47.154;27.614;2023-09-30T05:01:51;10.90;;;10.40;;
34737;SDS011;39910;47.154;27.614;2023-09-30T05:04:16;11.15;;;10.65;;
34737;SDS011;39910;47.154;27.614;2023-09-30T05:06:42;10.68;;;10.18;;
34737;SDS011;39910;47.154;27.614;2023-09-30T05:09:07;11.13;;;10.63;;
34737;SDS011;39910;47.154;27.614;2023-09-30T05:11:32;11.18;;;10.68;;
34737;SDS011;39910;47.154;27.614;2023-09-30T05:14:00;11.75;;;11.25;;
34737;SDS011;39910;47.154;27.614;2023-09-30T05:16:30;11.43;;;10.93;;
34737;SDS011;39910;47.154;27.614;2023-09-30T05:18:56;11.38;;;10.88;;
34737;SDS011;39910;47.154;27.614;2023-09-30T05:21:22;11.77;;;11.27;;
34737;SDS011;39910;47.154;27.614;2023-09-30T05:23:47;11.70;;;11.20;;
34737;SDS011;39910;47.154;27.614;2023-09-30T05:26:12;11.55;;;11.05;;
34737;SDS011;39910;47.154;27.614;2023-09-30T05:28:38;11.43;;;10.93;;
34737;SDS011;39910;47.154;27.614;2023-09-30T05:31:04;11.57;;;11.07;;
34737;SDS011;39910;47.154;27.614;2023-09-30T05:33:30;11.40;;;10.90;;
34737;SDS011;39910;47.154;27.614;2023-09-30T05:35:55;11.60;;;11.10;;
34737;SDS011;39910;47.154;27.614;2023-09-30T05:38:21;11.68;;;11.18;;
34737;SDS011;39910;47.154;27.614;2023-09-30T05:40:48;11.60;;;11.10;;
34737;SDS011;39910;47.154;27.614;2023-09-30T05:43:14;11.68;;;11.18;;
34737;SDS011;39910;47.154;27.614;2023-09-30T05:45:41;11.73;;;11.23;;
34737;SDS011;39910;47.154;27.614;2023-09-30T05:48:14;11.80;;;11.30;;
34737;SDS011;39910;47.154;27.614;2023-09-30T05:50:40;11.57;;;11.07;;
34737;SDS011;39910;47.154;27.614;2023-09-30T05:53:06;11.70;;;11.20;;
34737;SDS011;39910;47.154;27.614;2023-09-30T05:55:31;11.65;;;11.15;;
34737;SDS011;39910;47.154;27.614;2023-09-30T05:57:56;11.70;;;11.20;;
34737;SDS011;39910;47.154;27.614;2023-09-30T06:00:22;11.80;;;11.30;;
34737;SDS011;39910;47.154;27.614;2023-09-30T06:02:48;11.70;;;11.20;;
34737;SDS011;39910;47.154;27.614;2023-09-30T06:05:14;11.80;;;11.30;;
34737;SDS011;39910;47.154;27.614;2023-09-30T06:07:41;11.77;;;11.27;;
34737;SDS011;39910;47.154;27.614;2023-09-30T06:10:06;11.60;;;11.10;;
34737;SDS011;39910;47.154;27.614;2023-09-30T06:12:32;11.93;;;11.43;;
34737;SDS011;39910;47.154;27.614;2023-09-30T06:14:57;11.95;;;11.45;;
34737;SDS011;39910;47.154;27.614;2023-09-30T06:17:23;12.05;;;11.55;;
34737;SDS011;39910;47.154;27.614;2023-09-30T06:19:49;11.75;;;11.25;;
34737;SDS011;39910;47.154;27.614;2023-09-30T06:22:15;11.75;;;11.25;;
34737;SDS011;39910;47.154;27.614;2023-09-30T06:24:41;11.90;;;11.40;;
34737;SDS011;39910;47.154;27.614;2023-09-30T06:27:07;11.93;;;11.43;;
34737;SDS011;39910;47.154;27.614;2023-09-30T06:29:32;11.70;;;11.20;;
34737;SDS011;39910;47.154;27.614;2023-09-30T06:31:58;12.20;;;11.70;;
34737;SDS011;39910;47.154;27.614;2023-09-30T06:34:24;12.00;;;11.50;;
34737;SDS011;39910;47.154;27.614;2023-09-30T06:36:49;11.90;;;11.40;;
34737;SDS011;39910;47.154;27.614;2023-09-30T06:39:14;11.88;;;11.38;;
34737;SDS011;39910;47.154;27.614;2023-09-30T06:41:40;12.13;;;11.63;;
34737;SDS011;39910;47.154;27.614;2023-09-30T06:44:05;12.20;;;11.70;;
34737;SDS011;39910;47.154;27.614;2023-09-30T06:46:31;11.90;;;11.40;;
34737;SDS011;39910;47.154;27.614;2023-09-30T06:48:56;12.13;;;11.63;;
34737;SDS011;39910;47.154;27.614;2023-09-30T06:51:21;12.02;;;11.52;;
34737;SDS011;39910;47.154;27.614;2023-09-30T06:53:47;11.77;;;11.27;;
34737;SDS011;39910;47.154;27.614;2023-09-30T06:56:12;11.90;;;11.40;;
34737;SDS011;39910;47.154;27.614;2023-09-30T06:58:40;12.02;;;11.52;;
34737;SDS011;39910;47.154;27.614;2023-09-30T07:01:06;11.68;;;11.18;;
34737;SDS011;39910;47.154;27.614;2023-09-30T07:03:31;12.18;;;11.68;;
34737;SDS011;39910;47.154;27.614;2023-09-30T07:05:58;12.27;;;11.77;;
34737;SDS011;39910;47.154;27.614;2023-09-30T07:08:26;12.15;;;11.65;;
34737;SDS011;39910;47.154;27.614;2023-09-30T07:10:51;12.30;;;11.80;;
34737;SDS011;39910;47.154;27.614;2023-09-30T07:13:17;11.77;;;11.27;;
34737;SDS011;39910;47.154;27.614;2023-09-30T07:15:43;12.10;;;11.60;;
34737;SDS011;39910;47.154;27.614;2023-09-30T07:18:08;11.80;;;11.30;;
34737;SDS011;39910;47.154;27.614;2023-09-30T07:20:33;12.00;;;11.50;;
34737;SDS011;39910;47.154;27.614;2023-09-30T07:23:02;11.80;;;11.30;;
34737;SDS011;39910;47.154;27.614;2023-09-30T07:25:28;11.85;;;11.35;;
34737;SDS011;39910;47.154;27.614;2023-09-30T07:27:57;11.88;;;11.38;;
34737;SDS011;39910;47.154;27.614;2023-09-30T07:30:22;12.10;;;11.60;;
34737;SDS011;39910;47.154;27.614;2023-09-30T07:32:48;12.20;;;11.70;;
34737;SDS011;39910;47.154;27.614;2023-09-30T07:35:13;12.13;;;11.63;;
34737;SDS011;39910;47.154;27.614;2023-09-30T07:37:40;12.00;;;11.50;;
34737;SDS011;39910;47.154;27.614;2023-09-30T07:40:06;11.75;;;11.25;;
34737;SDS011;39910;47.154;27.614;2023-09-30T07:42:32;12.20;;;11.70;;
34737;SDS011;39910;47.154;27.614;2023-09-30T07:44:58;11.88;;;11.38;;
34737;SDS011;39910;47.154;27.614;2023-09-30T07:47:23;12.05;;;11.55;;
34737;SDS011;39910;47.154;27.614;2023-09-30T07:49:49;11.90;;;11.40;;
34737;SDS011;39910;47.154;27.614;2023-09-30T07:52:15;11.98;;;11.48;;
34737;SDS011;39910;47.154;27.614;2023-09-30T07:54:40;11.98;;;11.48;;
34737;SDS011;39910;47.154;27.614;2023-09-30T07:57:06;11.65;;;11.15;;
34737;SDS011;39910;47.154;27.614;2023-09-30T07:59:31;11.93;;;11.43;;
34737;SDS011;39910;47.154;27.614;2023-09-30T08:01:58;11.95;;;11.45;;
34737;SDS011;39910;47.154;27.614;2023-09-30T08:04:23;11.73;;;11.23;;
34737;SDS011;39910;47.154;27.614;2023-09-30T08:06:49;12.05;;;11.55;;
34737;SDS011;39910;47.154;27.614;2023-09-30T08:09:16;12.00;;;11.50;;
34737;SDS011;39910;47.154;27.614;2023-09-30T08:11:43;11.93;;;11.43;;
34737;SDS011;39910;47.154;27.614;2023-09-30T08:14:09;12.10;;;11.60;;
34737;SDS011;39910;47.154;27.614;2023-09-30T08:16:35;11.82;;;11.32;;
34737;SDS011;39910;47.154;27.614;2023-09-30T08:19:00;11.70;;;11.20;;
34737;SDS011;39910;47.154;27.614;2023-09-30T08:21:25;12.02;;;11.52;;
34737;SDS011;39910;47.154;27.614;2023-09-30T08:23:51;12.05;;;11.55;;
34737;SDS011;39910;47.154;27.614;2023-09-30T08:26:16;11.90;;;11.40;;
34737;SDS011;39910;47.154;27.614;2023-09-30T08:28:41;12.02;;;11.52;;
34737;SDS011;39910;47.154;27.614;2023-09-30T08:31:07;11.80;;;11.30;;
34737;SDS011;39910;47.154;27.614;2023-09-30T08:33:34;11.73;;;11.23;;
34737;SDS011;39910;47.154;27.614;2023-09-30T08:36:01;11.90;;;11.40;;
34737;SDS011;39910;47.154;27.614;2023-09-30T08:38:28;11.68;;;11.18;;
34737;SDS011;39910;47.154;27.614;2023-09-30T08:40:53;11.90;;;11.40;;
34737;SDS011;39910;47.154;27.614;2023-09-30T08:43:19;11.98;;;11.48;;
34737;SDS011;39910;47.154;27.614;2023-09-30T08:45:48;12.07;;;11.57;;
34737;SDS011;39910;47.154;27.614;2023-09-30T08:48:16;11.90;;;11.40;;
34737;SDS011;39910;47.154;27.614;2023-09-30T08:50:42;12.10;;;11.60;;
34737;SDS011;39910;47.154;27.614;2023-09-30T08:53:09;12.00;;;11.50;;
34737;SDS011;39910;47.154;27.614;2023-09-30T08:55:35;11.57;;;11.07;;
34737;SDS011;39910;47.154;27.614;2023-09-30T08:58:02;11.60;;;11.10;;
34737;SDS011;39910;47.154;27.614;2023-09-30T09:00:27;11.80;;;11.30;;
34737;SDS011;39910;47.154;27.614;2023-09-30T09:02:53;11.65;;;11.15;;
34737;SDS011;39910;47.154;27.614;2023-09-30T09:05:18;12.05;;;11.55;;
34737;SDS011;39910;47.154;27.614;2023-09-30T09:07:44;11.90;;;11.40;;
34737;SDS011;39910;47.154;27.614;2023-09-30T09:10:10;11.95;;;11.45;;
34737;SDS011;39910;47.154;27.614;2023-09-30T09:12:38;12.27;;;11.77;;
34737;SDS011;39910;47.154;27.614;2023-09-30T09:15:07;12.25;;;11.75;;
34737;SDS011;39910;47.154;27.614;2023-09-30T09:17:42;11.70;;;11.20;;
34737;SDS011;39910;47.154;27.614;2023-09-30T09:20:08;12.05;;;11.55;;
34737;SDS011;39910;47.154;27.614;2023-09-30T09:22:38;12.00;;;11.50;;
34737;SDS011;39910;47.154;27.614;2023-09-30T09:25:04;11.90;;;11.40;;
34737;SDS011;39910;47.154;27.614;2023-09-30T09:27:29;11.93;;;11.43;;
34737;SDS011;39910;47.154;27.614;2023-09-30T09:29:58;11.90;;;11.40;;
34737;SDS011;39910;47.154;27.614;2023-09-30T09:32:38;11.88;;;11.38;;
34737;SDS011;39910;47.154;27.614;2023-09-30T09:35:04;11.90;;;11.40;;
34737;SDS011;39910;47.154;27.614;2023-09-30T09:37:31;11.57;;;11.07;;
34737;SDS011;39910;47.154;27.614;2023-09-30T09:39:57;11.77;;;11.27;;
34737;SDS011;39910;47.154;27.614;2023-09-30T09:44:52;11.60;;;11.10;;
34737;SDS011;39910;47.154;27.614;2023-09-30T09:47:19;11.82;;;11.32;;
34737;SDS011;39910;47.154;27.614;2023-09-30T09:49:46;11.77;;;11.27;;
34737;SDS011;39910;47.154;27.614;2023-09-30T09:52:12;11.73;;;11.23;;
34737;SDS011;39910;47.154;27.614;2023-09-30T09:54:40;11.45;;;10.95;;
34737;SDS011;39910;47.154;27.614;2023-09-30T09:57:05;11.63;;;11.13;;
34737;SDS011;39910;47.154;27.614;2023-09-30T09:59:32;11.75;;;11.25;;
34737;SDS011;39910;47.154;27.614;2023-09-30T10:01:57;11.82;;;11.32;;
34737;SDS011;39910;47.154;27.614;2023-09-30T10:04:24;11.75;;;11.25;;
34737;SDS011;39910;47.154;27.614;2023-09-30T10:06:50;11.88;;;11.38;;
34737;SDS011;39910;47.154;27.614;2023-09-30T10:09:18;11.40;;;10.90;;
34737;SDS011;39910;47.154;27.614;2023-09-30T10:11:43;11.40;;;10.90;;
34737;SDS011;39910;47.154;27.614;2023-09-30T10:14:10;11.60;;;11.10;;
34737;SDS011;39910;47.154;27.614;2023-09-30T10:16:55;11.52;;;11.02;;
34737;SDS011;39910;47.154;27.614;2023-09-30T10:19:21;11.73;;;11.23;;
34737;SDS011;39910;47.154;27.614;2023-09-30T10:24:34;12.00;;;11.50;;
34737;SDS011;39910;47.154;27.614;2023-09-30T10:27:33;11.63;;;11.13;;
34737;SDS011;39910;47.154;27.614;2023-09-30T10:40:37;11.60;;;11.10;;
34737;SDS011;39910;47.154;27.614;2023-09-30T10:43:02;11.63;;;11.13;;
34737;SDS011;39910;47.154;27.614;2023-09-30T10:50:50;11.25;;;10.75;;
34737;SDS011;39910;47.154;27.614;2023-09-30T10:53:16;11.73;;;11.23;;
34737;SDS011;39910;47.154;27.614;2023-09-30T10:55:42;11.50;;;11.00;;
34737;SDS011;39910;47.154;27.614;2023-09-30T10:58:09;11.82;;;11.32;;
34737;SDS011;39910;47.154;27.614;2023-09-30T11:00:34;11.45;;;10.95;;
34737;SDS011;39910;47.154;27.614;2023-09-30T11:03:00;11.57;;;11.07;;
34737;SDS011;39910;47.154;27.614;2023-09-30T11:05:25;11.32;;;10.82;;
34737;SDS011;39910;47.154;27.614;2023-09-30T11:07:50;11.48;;;10.98;;
34737;SDS011;39910;47.154;27.614;2023-09-30T11:10:17;11.77;;;11.27;;
34737;SDS011;39910;47.154;27.614;2023-09-30T11:12:53;11.65;;;11.15;;
34737;SDS011;39910;47.154;27.614;2023-09-30T11:15:18;11.65;;;11.15;;
34737;SDS011;39910;47.154;27.614;2023-09-30T11:17:44;11.60;;;11.10;;
34737;SDS011;39910;47.154;27.614;2023-09-30T11:20:09;11.55;;;11.05;;
34737;SDS011;39910;47.154;27.614;2023-09-30T11:22:35;11.65;;;11.15;;
34737;SDS011;39910;47.154;27.614;2023-09-30T11:25:00;11.73;;;11.23;;
34737;SDS011;39910;47.154;27.614;2023-09-30T11:27:26;11.85;;;11.35;;
34737;SDS011;39910;47.154;27.614;2023-09-30T11:29:51;11.80;;;11.30;;
34737;SDS011;39910;47.154;27.614;2023-09-30T11:32:26;11.70;;;11.20;;
34737;SDS011;39910;47.154;27.614;2023-09-30T11:34:53;11.60;;;11.10;;
34737;SDS011;39910;47.154;27.614;2023-09-30T11:37:19;11.52;;;11.02;;
34737;SDS011;39910;47.154;27.614;2023-09-30T11:39:44;11.77;;;11.27;;
34737;SDS011;39910;47.154;27.614;2023-09-30T11:42:16;11.90;;;11.40;;
34737;SDS011;39910;47.154;27.614;2023-09-30T11:44:45;11.40;;;10.90;;
34737;SDS011;39910;47.154;27.614;2023-09-30T11:47:15;11.70;;;11.20;;
34737;SDS011;39910;47.154;27.614;2023-09-30T11:49:42;11.75;;;11.25;;
34737;SDS011;39910;47.154;27.614;2023-09-30T11:52:13;11.65;;;11.15;;
34737;SDS011;39910;47.154;27.614;2023-09-30T11:54:40;11.75;;;11.25;;
34737;SDS011;39910;47.154;27.614;2023-09-30T11:57:08;11.80;;;11.30;;
34737;SDS011;39910;47.154;27.614;2023-09-30T11:59:37;11.27;;;10.77;;
34737;SDS011;39910;47.154;27.614;2023-09-30T12:02:03;11.38;;;10.88;;
34737;SDS011;39910;47.154;27.614;2023-09-30T12:04:28;11.60;;;11.10;;
34737;SDS011;39910;47.154;27.614;2023-09-30T12:06:54;11.63;;;11.13;;
34737;SDS011;39910;47.154;27.614;2023-09-30T12:09:20;11.85;;;11.35;;
34737;SDS011;39910;47.154;27.614;2023-09-30T12:11:51;11.70;;;11.20;;
34737;SDS011;39910;47.154;27.614;2023-09-30T12:14:16;11.55;;;11.05;;
34737;SDS011;39910;47.154;27.614;2023-09-30T12:16:41;11.35;;;10.85;;
34737;SDS011;39910;47.154;27.614;2023-09-30T12:19:09;11.88;;;11.38;;
34737;SDS011;39910;47.154;27.614;2023-09-30T12:21:35;11.45;;;10.95;;
34737;SDS011;39910;47.154;27.614;2023-09-30T12:24:02;11.93;;;11.43;;
34737;SDS011;39910;47.154;27.614;2023-09-30T12:26:28;11.55;;;11.05;;
34737;SDS011;39910;47.154;27.614;2023-09-30T12:28:53;11.50;;;11.00;;
34737;SDS011;39910;47.154;27.614;2023-09-30T12:31:19;11.88;;;11.38;;
34737;SDS011;39910;47.154;27.614;2023-09-30T12:33:46;11.50;;;11.00;;
34737;SDS011;39910;47.154;27.614;2023-09-30T12:36:15;11.55;;;11.05;;
34737;SDS011;39910;47.154;27.614;2023-09-30T12:38:41;11.38;;;10.88;;
34737;SDS011;39910;47.154;27.614;2023-09-30T12:41:07;11.45;;;10.95;;
34737;SDS011;39910;47.154;27.614;2023-09-30T12:43:34;11.75;;;11.25;;
34737;SDS011;39910;47.154;27.614;2023-09-30T12:45:59;12.02;;;11.52;;
34737;SDS011;39910;47.154;27.614;2023-09-30T12:48:24;11.48;;;10.98;;
34737;SDS011;39910;47.154;27.614;2023-09-30T12:50:50;11.95;;;11.45;;
34737;SDS011;39910;47.154;27.614;2023-09-30T12:53:15;11.70;;;11.20;;
34737;SDS011;39910;47.154;27.614;2023-09-30T12:55:40;11.70;;;11.20;;
34737;SDS011;39910;47.154;27.614;2023-09-30T12:58:06;11.85;;;11.35;;
34737;SDS011;39910;47.154;27.614;2023-09-30T13:00:31;11.70;;;11.20;;
34737;SDS011;39910;47.154;27.614;2023-09-30T13:02:58;11.73;;;11.23;;
34737;SDS011;39910;47.154;27.614;2023-09-30T13:05:23;11.85;;;11.35;;
34737;SDS011;39910;47.154;27.614;2023-09-30T13:07:50;11.68;;;11.18;;
34737;SDS011;39910;47.154;27.614;2023-09-30T13:10:15;12.13;;;11.63;;
34737;SDS011;39910;47.154;27.614;2023-09-30T13:12:41;11.43;;;10.93;;
34737;SDS011;39910;47.154;27.614;2023-09-30T13:15:06;11.63;;;11.13;;
34737;SDS011;39910;47.154;27.614;2023-09-30T13:17:33;11.57;;;11.07;;
34737;SDS011;39910;47.154;27.614;2023-09-30T13:19:59;11.60;;;11.10;;
34737;SDS011;39910;47.154;27.614;2023-09-30T13:22:24;12.07;;;11.57;;
34737;SDS011;39910;47.154;27.614;2023-09-30T13:24:50;11.50;;;11.00;;
34737;SDS011;39910;47.154;27.614;2023-09-30T13:27:17;11.75;;;11.25;;
34737;SDS011;39910;47.154;27.614;2023-09-30T13:29:44;11.80;;;11.30;;
34737;SDS011;39910;47.154;27.614;2023-09-30T13:32:10;11.40;;;10.90;;
34737;SDS011;39910;47.154;27.614;2023-09-30T13:34:36;11.32;;;10.82;;
34737;SDS011;39910;47.154;27.614;2023-09-30T13:37:01;11.43;;;10.93;;
34737;SDS011;39910;47.154;27.614;2023-09-30T13:39:26;11.63;;;11.13;;
34737;SDS011;39910;47.154;27.614;2023-09-30T13:41:52;11.45;;;10.95;;
34737;SDS011;39910;47.154;27.614;2023-09-30T13:44:18;11.18;;;10.68;;
34737;SDS011;39910;47.154;27.614;2023-09-30T13:46:44;11.38;;;10.88;;
34737;SDS011;39910;47.154;27.614;2023-09-30T13:49:09;11.45;;;10.95;;
34737;SDS011;39910;47.154;27.614;2023-09-30T13:51:34;11.13;;;10.63;;
34737;SDS011;39910;47.154;27.614;2023-09-30T13:53:59;11.47;;;10.97;;
34737;SDS011;39910;47.154;27.614;2023-09-30T13:56:25;11.38;;;10.88;;
34737;SDS011;39910;47.154;27.614;2023-09-30T13:58:50;11.70;;;11.20;;
34737;SDS011;39910;47.154;27.614;2023-09-30T14:01:16;11.43;;;10.93;;
34737;SDS011;39910;47.154;27.614;2023-09-30T14:03:42;11.38;;;10.88;;
34737;SDS011;39910;47.154;27.614;2023-09-30T14:06:11;11.20;;;10.70;;
34737;SDS011;39910;47.154;27.614;2023-09-30T14:08:37;11.48;;;10.98;;
34737;SDS011;39910;47.154;27.614;2023-09-30T14:11:02;11.20;;;10.70;;
34737;SDS011;39910;47.154;27.614;2023-09-30T14:13:28;11.27;;;10.77;;
34737;SDS011;39910;47.154;27.614;2023-09-30T14:15:53;11.68;;;11.18;;
34737;SDS011;39910;47.154;27.614;2023-09-30T14:18:18;11.25;;;10.75;;
34737;SDS011;39910;47.154;27.614;2023-09-30T14:20:43;11.27;;;10.77;;
34737;SDS011;39910;47.154;27.614;2023-09-30T14:23:09;11.70;;;11.20;;
34737;SDS011;39910;47.154;27.614;2023-09-30T14:25:34;11.43;;;10.93;;